Nearby METAR Reports

 

KSJC - San Jose, California, USA
Distance from station: NE 9mi, 14km
Updated: Sun, 17-Dec-2017 12:53am MST
Partly cloudy
Partly cloudy
 Wind from WNW
Wind: WNW 8 mph , 13 km/h
Temperature: 52°F , 11°C
Dew Point: 25°F , -4°C
Humidity: 35%
Barometer: 29.97 inHg , 1014.9 hPa
Clouds: Partly cloudy
Visibility: 10 miles , 16 km
Cloud details: Few Clouds 9000 ft
Partly cloudy 14000 ft
2017/12/17 07:53 KSJC 170753Z 29007KT 10SM FEW090 SCT140 11/M04 A2997 RMK AO2 SLP149 LAST T01111039 401940061
KNUQ - Moffett Nas/Mtn, California, USA
Distance from station: N 9mi, 14km
Updated: Sun, 17-Dec-2017 12:56am MST
Clear
Clear
 Wind from NW
Wind: NW 6 mph , 9 km/h
Temperature: 54°F , 12°C
Dew Point: 27°F , -3°C
Humidity: 35%
Barometer: 29.98 inHg , 1015.2 hPa
Clouds: Clear
Visibility: 10 miles , 16 km
2017/12/17 07:56 KNUQ 170756Z 31005KT 10SM CLR 12/M03 A2998 RMK AO2 SLP155 T01171028 401720067
 
KPAO - Palo Alto, California, USA
Distance from station: NNW 14mi, 23km
Updated: Sat, 16-Dec-2017 9:47pm MST
NOT Current
Clear
Clear
 Wind from calm
Wind: Calm
Temperature: 50°F , 10°C
Dew Point: 36°F , 2°C
Humidity: 58%
Barometer: 29.97 inHg , 1014.9 hPa
Clouds: Clear
Visibility: 10 miles , 16 km
2017/12/17 04:47 KPAO 170447Z 00000KT 10SM SKC 10/02 A2997 RMK LAST
KRHV - San Jose/Reid, California, USA
Distance from station: ENE 12mi, 19km
Updated: Sat, 16-Dec-2017 10:47pm MST
NOT Current
Clear
Clear
 Wind from N
Wind: N 9 mph , 15 km/h
Temperature: 52°F , 11°C
Dew Point: 16°F , -9°C
Humidity: 24%
Barometer: 29.93 inHg , 1013.5 hPa
Clouds: Clear
Visibility: 8 miles , 13 km
2017/12/17 05:47 KRHV 170547Z 01008KT 8SM SKC 11/M09 A2993 RMK LAST
 
KOAK - Oakland, California, USA
Distance from station: NNW 31mi, 50km
Updated: Sun, 17-Dec-2017 12:53am MST
Mostly cloudy
Mostly cloudy
 Wind from N
Wind: N 9 mph , 15 km/h, Gust: 23 mph , 37 km/h
Temperature: 55°F , 13°C
Dew Point: 21°F , -6°C
Humidity: 26%
Barometer: 29.98 inHg , 1015.2 hPa
Clouds: Mostly cloudy
Visibility: 10 miles , 16 km
Cloud details: Mostly cloudy 20000 ft
2017/12/17 07:53 KOAK 170753Z 35008G20KT 10SM BKN200 13/M06 A2998 RMK AO2 SLP151 T01331061 401780044 $
KSQL - San Carlos Airpo, California, USA
Distance from station: NW 21mi, 34km
Updated: Sun, 17-Dec-2017 12:55am MST
Clear
Clear
 Wind from N
Wind: N 8 mph , 13 km/h
Temperature: 55°F , 13°C
Dew Point: 28°F , -2°C
Humidity: 36%
Barometer: 29.99 inHg , 1015.6 hPa
Clouds: Clear
Visibility: 10 miles , 16 km
2017/12/17 07:55 KSQL 170755Z AUTO 35007KT 10SM CLR 13/M02 A2999 RMK AO2
 
KSFO - San Francisco, California, USA
Distance from station: NW 30mi, 49km
Updated: Sun, 17-Dec-2017 12:56am MST
Partly cloudy
Partly cloudy
 Wind from N
Wind: N 14 mph , 22 km/h
Temperature: 57°F , 14°C
Dew Point: 30°F , -1°C
Humidity: 36%
Barometer: 29.97 inHg , 1014.9 hPa
Clouds: Partly cloudy
Visibility: 10 miles , 16 km
Cloud details: Partly cloudy 20000 ft
2017/12/17 07:56 KSFO 170756Z 36012KT 10SM SCT200 14/M01 A2997 RMK AO2 SLP150 T01391011 401780094
KE16 - San Martin, California, USA
Distance from station: ESE 27mi, 43km
Updated: Sun, 17-Dec-2017 12:50am MST
Clear
Clear
 Wind from N
Wind: N 10 mph , 17 km/h
Temperature: 54°F , 12°C
Dew Point: 19°F , -7°C
Humidity: 26%
Barometer: 29.96 inHg , 1014.6 hPa
Clouds: Clear
Visibility: 10 miles , 16 km
2017/12/17 07:50 KE16 170750Z AUTO 01009KT 10SM CLR 12/M07 A2996 RMK AO2 PWINO PNO
 
KWVI - Watsonville, California, USA
Distance from station: SSE 27mi, 44km
Updated: Sun, 17-Dec-2017 12:53am MST
Clear
Clear
 Wind from NW
Wind: NW 8 mph , 13 km/h
Temperature: 57°F , 14°C
Dew Point: 18°F , -8°C
Humidity: 21%
Barometer: 29.94 inHg , 1013.9 hPa
Clouds: Clear
Visibility: 10 miles , 16 km
2017/12/17 07:53 KWVI 170753Z AUTO 32007KT 280V010 10SM CLR 14/M08 A2994 RMK AO2 SLP137 T01391083 401890056 $
KHAF - Half Moon Bay, California, USA
Distance from station: WNW 31mi, 50km
Updated: Sun, 17-Dec-2017 12:55am MST
Clear
Clear
 Wind from WNW
Wind: WNW 7 mph , 11 km/h
Temperature: 55°F , 13°C
Dew Point: 19°F , -7°C
Humidity: 24%
Barometer: 29.95 inHg , 1014.2 hPa
Clouds: Clear
Visibility: 10 miles , 16 km
2017/12/17 07:55 KHAF 170755Z AUTO 30006KT 10SM CLR 13/M07 A2995 RMK AO2
 
KHWD - Hayward, California, USA
Distance from station: N 28mi, 44km
Updated: Sun, 17-Dec-2017 12:54am MST
Clear
Clear
 Wind from varies
Wind: varies 5 mph , 7 km/h
Temperature: 54°F , 12°C
Dew Point: 16°F , -9°C
Humidity: 22%
Barometer: 29.98 inHg , 1015.2 hPa
Clouds: Clear
Visibility: 10 miles , 16 km
2017/12/17 07:54 KHWD 170754Z AUTO VRB04KT 10SM CLR 12/M09 A2998 RMK AO2 SLP161 T01221089 401940050
KLVK - Livermore, California, USA
Distance from station: NNE 31mi, 51km
Updated: Sun, 17-Dec-2017 12:53am MST
Clear
Clear
 Wind from NNW
Wind: NNW 7 mph , 11 km/h, Gust: 16 mph , 26 km/h
Temperature: 54°F , 12°C
Dew Point: 16°F , -9°C
Humidity: 22%
Barometer: 29.98 inHg , 1015.2 hPa
Clouds: Clear
Visibility: 10 miles , 16 km
2017/12/17 07:53 KLVK 170753Z AUTO 33006G14KT 10SM CLR 12/M09 A2998 RMK AO2 SLP151 T01221089 401720022